Sutherlin, Virginia
Current Conditions -  °F | °C
As of 8:53 PM on Friday 19 Dec 2014 (Local Time) from KDAN Reporting Station
Clear Clear  
Wind Chill: 33°   Ceiling: Unl
Heat Index: 33°   Visibility: 10mi
Dew Point: 26°   Wind: 0mph
Humidity: 75%   Direction: NA
Pressure: 30.2"   Gusts: NA
Location:  36.63°N, 79.21°W
Report Text: KDAN 200153Z AUTO 00000KT 10SM CLR 01/M03 A3020 RMK AO2 SLP226 T00061033
Loading
Personal Weather Stations






























Interactive Weather Map New forecast layout! Learn more

10-Day Weather Forecast

Advertisements
Track Severe Weather on mobile